Brownville, NY

4:12 AM EDT on October 25, 2014 (GMT -0400)
Watertown International | Change Station
CLOSE
Current Station
Airport
Location: Watertown,
Elevation: 325 ft
Nearby Weather Stations

Elev 325 ft 43.99 °N, 76.03 °W | Updated 16 minutes ago

Clear
Clear
40 °F
Feels Like 38 °F
N
4
Wind Variable Wind from SSE

Today
High -- | Low -- °F
--% Chance of Precip.
Yesterday
High -- | Low -- °F
Precip. -- in
7:31 AM 6:04 PM
New Moon, 2% visible
Pressure 29.84 in
Visibility 10.0 miles
Clouds Scattered Clouds 6500 ft
Windchill 38 °F
Dew Point 34 °F
Humidity 79%
Rainfall 0.00 in
Snow Depth Not available.
UV 0 out of 12
Pollen .10 out of 12
Air Quality Not available.
Flu Activity Sporadic
METAR KART 250756Z AUTO 16003KT 10SM SCT065 04/01 A2984 RMK AO2 SLP104 T00440011

More Conditions Fewer Conditions

Pressure 29.84 in
Visibility 10.0 miles
Clouds Scattered Clouds 6500 ft
Windchill 38 °F
Dew Point 34 °F
Humidity 79%
Rainfall 0.00 in
Snow Depth Not available.
UV 0 out of 12
Pollen .10 out of 12
Air Quality Not available.
Flu Activity Sporadic
METAR KART 250756Z AUTO 16003KT 10SM SCT065 04/01 A2984 RMK AO2 SLP104 T00440011

More Conditions Fewer Conditions

10-Day Weather Forecast

Almanac

Astronomy

Oct. 25, 2014 Rise Set
Actual Time 7:31 AM EDT 6:04 PM EDT
Civil Twilight 7:01 AM EDT 6:33 PM EDT
Nautical Twilight 6:27 AM EDT 7:07 PM EDT
Astronomical Twilight 5:54 AM EDT 7:40 PM EDT
Moon 9:10 AM EDT 7:22 PM EDT
Length of Visible Light 11h 32m
Length of Day
10h 32m
Tomorrow will be 2m 49s shorter.
New Moon, 2% of the Moon is Illuminated
Today
New Moon
Oct 30
First Quarter
Nov 6
Full
Nov 14
Last Quarter
Nov 22
New

Today's Extremes

State Highs State Lows

Community

WunderPhotos

Upload Photos

1,764,791 photos uploaded!

Nearby

Air Quality

  Air Quality AQ Index Pollutant
Saturday Good
PM2.5
Sunday Good
PM2.5
Monday Good
PM2.5

Snow Depth

Station Depth Elevation
No new snow has been reported.

Earthquake Activity

City Distance Mag. Time & Date
No recent earthquake activity has been reported nearby.
Minimum magnitude displayed is 2.5.

Coastal Water Temperatures

Place Temperature
Alexandria Bay, NY 55.9 °F
Ogdensburg, NY 57.0 °F

Nearby Weather Stations